Slayton, MN

9:08 AM CDT on March 25, 2017 (GMT -0500)
Slayton

Weather History for KDVP - July, 2013

Change the Weather History Date:

Friday, July 26, 2013

  Actual Average (KOTG) Record (KOTG)
Temperature  
Mean Temperature 59 °F -  
Max Temperature 67 °F 78 °F 93 °F (1976)
Min Temperature 51 °F 60 °F 47 °F (1980)
Degree Days  
Heating Degree Days 6    
Growing Degree Days 9 (Base 50)    
Moisture  
Dew Point 51 °F    
Average Humidity 73    
Maximum Humidity 93    
Minimum Humidity 46    
Precipitation  
Precipitation 0.17 in - - ()
Sea Level Pressure  
Sea Level Pressure 30.10 in    
Wind  
Wind Speed 11 mph (NW)    
Max Wind Speed 25 mph    
Max Gust Speed 31 mph    
Visibility 10 miles    
Events Rain    
Averages and records for this station are not official NWS values.
T = Trace of Precipitation, MM = Missing Value Source: NWS Daily Summary

Daily Weather History Graph

Daily Weather History Graph

Search for Another Location

Airport or City:

Trip Planner

Search our weather history database for the weather conditions in past years. The results will help you decide how hot, cold, wet, or windy it might be!

Date:

Astronomy

Jul. 26, 2013 Rise Set
Actual Time 6:05 AM CDT 8:53 PM CDT
Civil Twilight 5:31 AM CDT 9:26 PM CDT
Nautical Twilight 4:48 AM CDT 10:09 PM CDT
Astronomical Twilight 3:59 AM CDT 10:58 PM CDT
Moon 10:55 PM CDT (7/26) 10:54 AM CDT (7/26)
Length of Visible Light 15h 55m
Length of Day
14h 48m
Waning Gibbous, 80% of the Moon is Illuminated
Jul 26
Waning Gibbous
Jul 29
Last Quarter
Aug 6
New
Aug 14
First Quarter
Aug 20
Full

Hourly Weather History & Observations

Time (CDT) Temp. Dew Point Humidity Pressure Visibility Wind Dir Wind Speed Gust Speed Precip Events Conditions
12:13 AM 67.5 °F 63.5 °F 87% 30.01 in 10.0 mi SW 6.9 mph - N/A   Scattered Clouds
12:33 AM 66.7 °F 63.5 °F 89% 30.00 in 10.0 mi SW 8.1 mph - N/A   Scattered Clouds
12:52 AM 65.5 °F 62.4 °F 90% 30.04 in 2.5 mi WNW 12.7 mph 19.6 mph 0.17 in Rain Heavy Rain
1:13 AM 64.4 °F 61.2 °F 89% 30.04 in 10.0 mi NNW 4.6 mph - N/A   Mostly Cloudy
1:34 AM 64.6 °F 60.1 °F 85% 30.04 in 10.0 mi NNW 8.1 mph - N/A   Mostly Cloudy
1:53 AM 63.5 °F 58.1 °F 83% 30.03 in 10.0 mi NNW 6.9 mph - N/A   Mostly Cloudy
2:13 AM 61.9 °F 58.6 °F 89% 30.03 in 10.0 mi NW 5.8 mph - N/A   Scattered Clouds
2:33 AM 60.4 °F 58.3 °F 93% 30.03 in 10.0 mi NW 5.8 mph - N/A   Clear
2:53 AM 60.3 °F 57.6 °F 91% 30.03 in 10.0 mi NW 6.9 mph - N/A   Clear
3:13 AM 59.9 °F 56.5 °F 88% 30.04 in 10.0 mi NW 6.9 mph - N/A   Mostly Cloudy
3:33 AM 59.5 °F 55.4 °F 86% 30.04 in 10.0 mi NW 9.2 mph - N/A   Mostly Cloudy
3:54 AM 58.6 °F 54.3 °F 86% 30.04 in 10.0 mi NW 9.2 mph - N/A   Mostly Cloudy
4:13 AM 58.1 °F 53.6 °F 85% 30.04 in 10.0 mi NW 9.2 mph - N/A   Mostly Cloudy
4:33 AM 58.3 °F 53.2 °F 83% 30.04 in 10.0 mi NW 9.2 mph - N/A   Overcast
4:53 AM 56.7 °F 52.5 °F 86% 30.04 in 10.0 mi NW 8.1 mph - N/A   Scattered Clouds
5:13 AM 55.2 °F 52.0 °F 89% 30.05 in 10.0 mi WNW 6.9 mph - N/A   Clear
5:33 AM 54.5 °F 51.6 °F 90% 30.05 in 10.0 mi WNW 6.9 mph - N/A   Clear
5:53 AM 54.0 °F 51.1 °F 90% 30.06 in 10.0 mi NW 6.9 mph - N/A   Clear
6:13 AM 53.2 °F 50.9 °F 92% 30.05 in 10.0 mi WNW 5.8 mph - N/A   Clear
6:33 AM 53.2 °F 51.1 °F 92% 30.06 in 10.0 mi WNW 5.8 mph - N/A   Clear
6:53 AM 54.0 °F 51.8 °F 92% 30.06 in 10.0 mi NW 9.2 mph - N/A   Clear
7:13 AM 55.6 °F 52.2 °F 88% 30.07 in 10.0 mi NW 10.4 mph - N/A   Clear
7:33 AM 56.3 °F 52.3 °F 87% 30.07 in 10.0 mi NW 11.5 mph 18.4 mph N/A   Clear
7:53 AM 56.7 °F 52.5 °F 86% 30.08 in 10.0 mi NW 12.7 mph - N/A   Scattered Clouds
8:13 AM 57.2 °F 52.3 °F 84% 30.08 in 10.0 mi NW 19.6 mph 23.0 mph N/A   Mostly Cloudy
8:33 AM 57.7 °F 51.4 °F 79% 30.09 in 10.0 mi NW 17.3 mph 26.5 mph N/A   Mostly Cloudy
8:54 AM 59.4 °F 51.4 °F 75% 30.10 in 10.0 mi NNW 15.0 mph 24.2 mph N/A   Mostly Cloudy
9:12 AM 58.1 °F 50.0 °F 74% 30.10 in 10.0 mi NNW 15.0 mph 25.3 mph N/A   Overcast
9:33 AM 58.1 °F 49.6 °F 73% 30.11 in 10.0 mi NNW 13.8 mph 23.0 mph N/A   Overcast
9:54 AM 58.1 °F 50.4 °F 75% 30.12 in 10.0 mi NNW 16.1 mph 21.9 mph N/A   Overcast
10:13 AM 58.5 °F 50.4 °F 74% 30.12 in 10.0 mi NNW 12.7 mph 23.0 mph N/A   Overcast
10:33 AM 59.2 °F 50.5 °F 73% 30.13 in 10.0 mi NW 18.4 mph 24.2 mph N/A   Overcast
10:53 AM 60.3 °F 50.9 °F 71% 30.13 in 10.0 mi NW 17.3 mph 24.2 mph N/A   Overcast
11:14 AM 60.4 °F 50.9 °F 71% 30.13 in 10.0 mi NW 20.7 mph 27.6 mph N/A   Overcast
11:34 AM 61.3 °F 51.4 °F 70% 30.14 in 10.0 mi NW 15.0 mph 28.8 mph N/A   Overcast
11:54 AM 60.8 °F 50.7 °F 69% 30.14 in 10.0 mi NW 18.4 mph 27.6 mph N/A   Overcast
12:14 PM 62.1 °F 51.3 °F 68% 30.14 in 10.0 mi NNW 19.6 mph 25.3 mph N/A   Overcast
12:33 PM 63.5 °F 51.6 °F 65% 30.14 in 10.0 mi NW 23.0 mph 28.8 mph N/A   Overcast
12:53 PM 64.9 °F 50.5 °F 60% 30.14 in 10.0 mi NNW 25.3 mph 28.8 mph N/A   Scattered Clouds
1:14 PM 64.8 °F 50.4 °F 60% 30.14 in 10.0 mi NNW 24.2 mph 29.9 mph N/A   Mostly Cloudy
1:34 PM 63.7 °F 48.9 °F 59% 30.13 in 10.0 mi NW 19.6 mph 26.5 mph N/A   Mostly Cloudy
1:53 PM 65.1 °F 49.1 °F 56% 30.13 in 10.0 mi NNW 17.3 mph 26.5 mph N/A   Mostly Cloudy
2:13 PM 65.3 °F 49.5 °F 57% 30.13 in 10.0 mi NNW 18.4 mph 25.3 mph N/A   Mostly Cloudy
2:34 PM 65.7 °F 49.1 °F 55% 30.14 in 10.0 mi NNW 19.6 mph 26.5 mph N/A   Mostly Cloudy
2:53 PM 65.1 °F 48.7 °F 55% 30.14 in 10.0 mi NNW 20.7 mph 26.5 mph N/A   Mostly Cloudy
3:14 PM 66.6 °F 49.1 °F 53% 30.14 in 10.0 mi NNW 20.7 mph 31.1 mph N/A   Mostly Cloudy
3:33 PM 66.0 °F 49.6 °F 55% 30.14 in 10.0 mi NNW 15.0 mph 27.6 mph N/A   Mostly Cloudy
3:53 PM 66.0 °F 49.1 °F 54% 30.14 in 10.0 mi NNW 17.3 mph 28.8 mph N/A   Mostly Cloudy
4:13 PM 67.3 °F 48.0 °F 50% 30.14 in 10.0 mi NW 20.7 mph 28.8 mph N/A   Mostly Cloudy
4:33 PM 65.3 °F 48.4 °F 54% 30.13 in 10.0 mi NNW 17.3 mph 23.0 mph N/A   Mostly Cloudy
4:54 PM 66.2 °F 46.8 °F 50% 30.14 in 10.0 mi NNW 17.3 mph 26.5 mph N/A   Scattered Clouds
5:13 PM 67.1 °F 45.9 °F 46% 30.13 in 10.0 mi North 21.9 mph 28.8 mph N/A   Scattered Clouds
5:33 PM 66.9 °F 46.4 °F 48% 30.13 in 10.0 mi NNW 18.4 mph 23.0 mph N/A   Scattered Clouds
5:54 PM 66.2 °F 45.7 °F 48% 30.13 in 10.0 mi North 18.4 mph 28.8 mph N/A   Clear
6:13 PM 66.6 °F 46.9 °F 49% 30.13 in 10.0 mi NNW 13.8 mph 20.7 mph N/A   Clear
6:34 PM 67.3 °F 47.3 °F 49% 30.13 in 10.0 mi North 18.4 mph 24.2 mph N/A   Scattered Clouds
6:53 PM 66.0 °F 46.6 °F 49% 30.13 in 10.0 mi NNW 15.0 mph 20.7 mph N/A   Scattered Clouds
7:13 PM 63.9 °F 46.6 °F 53% 30.13 in 10.0 mi NNW 11.5 mph - N/A   Scattered Clouds
7:33 PM 64.6 °F 47.1 °F 53% 30.13 in 10.0 mi NNW 13.8 mph - N/A   Clear
7:54 PM 63.0 °F 46.6 °F 55% 30.13 in 10.0 mi NNW 12.7 mph 17.3 mph N/A   Clear
8:13 PM 62.6 °F 47.1 °F 57% 30.13 in 10.0 mi North 10.4 mph 17.3 mph N/A   Clear
8:33 PM 61.0 °F 47.1 °F 60% 30.13 in 10.0 mi NNW 10.4 mph - N/A   Clear
8:54 PM 59.5 °F 46.9 °F 63% 30.14 in 10.0 mi NNW 8.1 mph - N/A   Clear
9:12 PM 58.5 °F 47.3 °F 66% 30.14 in 10.0 mi NNW 8.1 mph - N/A   Clear
9:33 PM 55.8 °F 49.1 °F 78% 30.15 in 10.0 mi NW 5.8 mph - N/A   Clear
9:53 PM 53.6 °F 49.1 °F 85% 30.15 in 10.0 mi NW 5.8 mph - N/A   Clear
10:13 PM 52.9 °F 48.6 °F 85% 30.16 in 10.0 mi NW 5.8 mph - N/A   Clear
10:33 PM 52.5 °F 47.8 °F 84% 30.16 in 10.0 mi NW 6.9 mph - N/A   Clear
10:53 PM 51.8 °F 47.7 °F 86% 30.15 in 10.0 mi WNW 6.9 mph - N/A   Clear
11:13 PM 51.4 °F 47.3 °F 86% 30.15 in 10.0 mi WNW 5.8 mph - N/A   Clear
11:33 PM 51.1 °F 46.8 °F 85% 30.15 in 10.0 mi NW 6.9 mph - N/A   Clear
11:53 PM 52.2 °F 46.8 °F 82% 30.15 in 10.0 mi NW 9.2 mph - N/A   Mostly Cloudy